• Join FlightAware (Why Join?)
  • Login
  • US Flag 
03:26PM EDT


 

Airport Tracker/Info


-or-


 

Live Flight TrackerFlight Track Log ✈ OPT732 ✈ 01-May-2013 ✈ KAUS - KFCM

Flight Track Log - Related Links

Times and Time Zones

All times are in EDT time to prevent confusion due to time zone crossing. See the OPT732 flight status page for this flight to view local times or setup timezone preferences in your user account.

Time Position Orientation Groundspeed Altitude Reporting Facility
EDT Latitude Longitude Course Direction KTS MPH feet Rate Location/Type
01:09PM 30.1114 -97.7003 327° Northwest 235 270 5,900  Level Houston Center
01:10PM 30.1631 -97.7556 317° Northwest 260 299 10,300 2,880 Climbing Houston Center
01:11PM 30.2378 -97.7778 346° North 273 314 11,900 1,080 Climbing Houston Center
01:12PM 30.3181 -97.8075 342° North 292 336 12,600 1,500 Climbing Houston Center
01:13PM 30.4169 -97.8464 341° North 313 360 15,100 2,280 Climbing Houston Center
01:14PM 30.7936 -97.8424 327° Northwest  Level FlightAware Approximate
01:14PM 30.5044 -97.8808 341° North 326 375 17,400  Level Houston Center
01:15PM 30.5947 -97.9142 342° North 333 383 19,700 2,100 Climbing Houston Center
01:16PM 30.6883 -97.9503 342° North 346 398 21,800 2,040 Climbing Houston Center
01:17PM 30.7853 -97.9875 342° North 358 412 23,900 2,160 Climbing Houston Center
01:18PM 30.8894 -97.9747 North 377 434 26,300 2,160 Climbing Houston Center
01:19PM 30.9428 -97.9558 17° North 371 427 27,400 1,920 Climbing Fort Worth Center
01:20PM 31.0494 -97.9128 19° North 387 445 29,400 2,040 Climbing Fort Worth Center
01:21PM 31.1539 -97.8722 18° North 392 451 31,500 1,800 Climbing Fort Worth Center
01:22PM 31.2669 -97.8289 18° North 412 474 33,000 1,500 Climbing Fort Worth Center
01:23PM 31.3922 -97.7783 19° North 425 489 34,500 1,500 Climbing Fort Worth Center
01:24PM 31.5114 -97.7350 17° North 431 496 36,100 1,800 Climbing Fort Worth Center
01:25PM 31.6264 -97.6867 20° North 443 510 38,200 1,860 Climbing Fort Worth Center
01:26PM 31.7433 -97.6406 19° North 443 510 39,900 1,200 Climbing Fort Worth Center
01:27PM 31.8603 -97.5944 19° North 438 504 40,700 600 Climbing Fort Worth Center
01:28PM 31.9606 -97.5308 28° Northeast 443 510 41,100 360 Climbing Fort Worth Center
01:29PM 32.0525 -97.4011 50° Northeast 460 529 41,500 420 Climbing Fort Worth Center
01:30PM 32.1381 -97.2931 47° Northeast 489 563 42,000 720 Climbing Fort Worth Center
01:31PM 32.2444 -97.1728 44° Northeast 489 563 43,000 600 Climbing Fort Worth Center
01:32PM 32.3569 -97.1306 18° North 466 536 43,300 420 Climbing Fort Worth Center
01:33PM 32.4989 -97.1153 North 458 527 43,900 420 Climbing Fort Worth Center
01:34PM 32.6139 -97.1372 351° North 458 527 44,200 300 Climbing Fort Worth Center
01:35PM 32.7539 -97.1664 350° North 468 539 44,500 300 Climbing Fort Worth Center
01:36PM 32.8708 -97.1908 350° North 468 539 44,800 240 Climbing Fort Worth Center
01:37PM 33.0169 -97.1781 North 468 539 45,000 60 Climbing Fort Worth Center
01:38PM 33.1336 -97.1506 11° North 473 544 45,000  Level Fort Worth Center
01:39PM 33.2819 -97.1103 13° North 479 551 45,000  Level Fort Worth Center
01:40PM 33.4194 -97.0775 11° North 491 565 45,000  Level Fort Worth Center
01:41PM 33.5383 -97.0447 13° North 486 559 45,000  Level Fort Worth Center
01:42PM 33.6886 -97.0042 13° North 486 559 45,000  Level Fort Worth Center
01:43PM 33.8117 -96.9736 12° North 492 566 45,000  Level Fort Worth Center
01:44PM 33.9553 -96.9328 13° North 484 557 45,000  Level Fort Worth Center
01:45PM 34.0908 -96.8969 12° North 489 563 45,000  Level Fort Worth Center
01:46PM 34.2242 -96.8583 13° North 489 563 45,000  Level Fort Worth Center
01:47PM 34.3578 -96.8222 13° North 489 563 45,000  Level Fort Worth Center
01:48PM 34.4931 -96.7886 12° North 489 563 45,000  Level Fort Worth Center
01:49PM 34.6264 -96.7497 13° North 489 563 45,000  Level Fort Worth Center
01:50PM 34.7639 -96.7133 12° North 489 563 45,000  Level Fort Worth Center
01:51PM 34.8972 -96.6744 13° North 489 563 45,000  Level Fort Worth Center
01:52PM 35.0325 -96.6350 13° North 489 563 45,000  Level Fort Worth Center
01:54PM 35.2478 -96.5739 13° North 502 578 45,000  Level Kansas City Center
01:55PM 35.3847 -96.5356 13° North 505 581 45,000  Level Kansas City Center
01:56PM 35.5197 -96.4969 13° North 504 580 45,000  Level Kansas City Center
01:57PM 35.6825 -96.4517 13° North 503 579 45,000  Level Kansas City Center
01:58PM 35.8189 -96.4136 13° North 504 580 45,000  Level Kansas City Center
01:59PM 35.9611 -96.3744 13° North 508 585 45,000  Level Kansas City Center
02:00PM 36.1008 -96.3350 13° North 511 588 45,000  Level Kansas City Center
02:01PM 36.2406 -96.2953 13° North 512 589 45,000  Level Kansas City Center
02:02PM 36.3811 -96.2547 13° North 513 590 45,000  Level Kansas City Center
02:03PM 36.5208 -96.2156 13° North 511 588 45,000  Level Kansas City Center
02:04PM 36.6606 -96.1733 14° North 512 589 45,000  Level Kansas City Center
02:05PM 36.8292 -96.1256 13° North 512 589 45,000  Level Kansas City Center
02:06PM 36.9692 -96.0853 13° North 512 589 45,000  Level Kansas City Center
02:07PM 37.1089 -96.0444 13° North 512 589 45,000  Level Kansas City Center
02:08PM 37.2481 -96.0019 14° North 512 589 45,000  Level Kansas City Center
02:09PM 37.3878 -95.9628 13° North 512 589 45,000  Level Kansas City Center
02:10PM 37.5267 -95.9206 14° North 511 588 45,000  Level Kansas City Center
02:11PM 37.6658 -95.8794 13° North 511 588 45,000  Level Kansas City Center
02:12PM 37.8044 -95.8392 13° North 508 585 45,000  Level Kansas City Center
02:13PM 37.9628 -95.7917 13° North 510 587 45,000  Level Kansas City Center
02:14PM 38.0947 -95.7522 13° North 508 585 45,000  Level Kansas City Center
02:15PM 38.2483 -95.7061 13° North 508 585 45,000  Level Kansas City Center
02:16PM 38.3792 -95.6658 14° North 506 582 45,000  Level Kansas City Center
02:17PM 38.5325 -95.6186 14° North 505 581 45,000  Level Kansas City Center
02:18PM 38.6636 -95.5783 13° North 505 581 45,000  Level Kansas City Center
02:19PM 38.8178 -95.5297 14° North 507 583 45,000  Level Kansas City Center
02:21PM 38.9500 -95.4889 14° North 508 585 45,000  Level Kansas City Center
02:22PM 39.1011 -95.4425 13° North 507 583 45,000  Level Kansas City Center
02:23PM 39.2503 -95.3958 14° North 511 588 45,000  Level Kansas City Center
02:24PM 39.3883 -95.3533 13° North 510 587 45,000  Level Kansas City Center
02:25PM 39.5272 -95.3106 13° North 510 587 45,000  Level Kansas City Center
02:26PM 39.6633 -95.2675 14° North 511 588 45,000  Level Kansas City Center
02:27PM 39.8175 -95.2183 14° North 511 588 45,000  Level Kansas City Center
02:27PM 39.8817 -95.1981 14° North 511 588 45,000  Level Minneapolis Center
02:28PM 39.9497 -95.1775 13° North 510 587 45,000  Level Kansas City Center
02:29PM 40.0831 -95.1350 14° North 511 588 45,000  Level Kansas City Center
02:29PM 40.1572 -95.1100 14° North 511 588 45,000  Level Minneapolis Center
02:30PM 40.2956 -95.0639 14° North 512 589 45,000 -180 Level Minneapolis Center
02:31PM 40.4342 -95.0203 13° North 513 590 44,700 -720 Descending Minneapolis Center
02:32PM 40.6031 -94.9658 14° North 519 597 43,600 -1,260 Descending Minneapolis Center
02:33PM 40.7447 -94.9206 14° North 524 603 42,200 -1,620 Descending Minneapolis Center
02:34PM 40.8786 -94.8761 14° North 510 587 40,300 -1,620 Descending Minneapolis Center
02:35PM 41.0086 -94.8336 14° North 493 567 39,000 -660 Descending Minneapolis Center
02:37PM 41.1486 -94.7878 14° North 506 582 39,000  Level Minneapolis Center
02:38PM 41.2953 -94.7367 15° North 531 611 39,000  Level Minneapolis Center
02:39PM 41.4639 -94.6422 23° Northeast 549 632 39,000  Level Minneapolis Center
02:40PM 41.6031 -94.5611 24° Northeast 549 632 39,000  Level Minneapolis Center
02:41PM 41.7417 -94.4797 24° Northeast 547 629 39,000  Level Minneapolis Center
02:42PM 41.9094 -94.3811 24° Northeast 549 632 39,000  Level Minneapolis Center
02:43PM 42.0506 -94.2994 23° Northeast 550 633 39,000  Level Minneapolis Center
02:44PM 42.1906 -94.2144 24° Northeast 553 636 39,000  Level Minneapolis Center
02:45PM 42.3333 -94.1286 24° Northeast 546 628 39,000  Level Minneapolis Center
02:46PM 42.4689 -94.0492 23° Northeast 535 616 39,000  Level Minneapolis Center
02:47PM 42.6294 -93.9517 24° Northeast 531 611 39,000  Level Minneapolis Center
02:48PM 42.7619 -93.8706 24° Northeast 526 605 39,000  Level Minneapolis Center
02:49PM 42.8964 -93.7964 22° Northeast 525 604 39,000 -720 Level Minneapolis Center
02:50PM 43.0367 -93.7622 10° North 515 593 37,600 -1,620 Descending Minneapolis Center
02:51PM 43.1775 -93.7267 10° North 514 592 35,700 -2,040 Descending Minneapolis Center
02:52PM 43.3303 -93.6903 10° North 546 628 33,500 -2,520 Descending Minneapolis Center
02:53PM 43.5178 -93.6431 10° North 569 655 30,600 -3,540 Descending Minneapolis Center
02:54PM 43.6639 -93.6053 11° North 561 646 26,200 -3,540 Descending Minneapolis Center
02:55PM 43.7978 -93.5722 10° North 508 585 23,300 -3,360 Descending Minneapolis Center
02:56PM 43.9275 -93.5408 10° North 481 554 19,400 -3,660 Descending Minneapolis Center
02:57PM 44.0478 -93.5083 11° North 445 512 15,800 -3,600 Descending Minneapolis Center
02:58PM 44.1822 -93.4744 10° North 400 460 12,000 -3,180 Descending Minneapolis Center
02:59PM 44.2828 -93.4597 North 362 417 9,300 -1,620 Descending Minneapolis Center
03:01PM 44.3625 -93.4581 North 282 325 8,400 -1,020 Descending Minneapolis Center
03:02PM 44.4450 -93.4408 North 249 287 7,100 -1,680 Descending Minneapolis Center
03:03PM 44.5081 -93.4114 18° North 241 277 4,700 -1,380 Descending Minneapolis Center
03:04PM 44.5794 -93.3783 18° North 225 259 4,000 -780 Descending Minneapolis Center
03:05PM 44.6475 -93.3464 18° North 216 249 3,100 -780 Descending Minneapolis Center
03:06PM 44.6975 -93.3233 18° North 188 216 2,500 -300 Descending Minneapolis Center
03:07PM 44.7475 -93.3000 18° North 186 214 2,500 -240 Level Minneapolis Center
03:08PM 44.7933 -93.3089 352° North 169 194 2,100 -300 Descending Minneapolis Center
03:09PM 44.8114 -93.3586 297° West 143 165 2,000 -420 Descending Minneapolis Center
03:10PM 44.8197 -93.4039 285° West 119 137 1,300 -540 Descending Minneapolis Center
03:11PM 44.8269 -93.4528 282° West 126 145 900 -420 Descending Minneapolis Center
03:13PM 44.8167 -93.4500 289° West  Level FlightAware Approximate